Aeroporto :
LOGIN :

Iscrizione | Disclaimer

   EN    FR    IT 

 










Sommario :    VFR   VFR Marginale   IFR   IFR Intensivo   IFR Molto Intensivo
Visibilità : 
Base nubi : 
>= 8 km
>= 3000ft
5 / 8 km
1000 / 3000 ft
1500m / 5 km
500 / 1000 ft
800 / 1500m
200 / 500 ft
< 800m
< 200 ft
Simboli :   Temporali  Nebbia  Neve Forte  Precipitazioni Forti  Vento > 20 kt
SIGMETs :   Varie  Temporali  Ghiacco  Turbolenza  Onda orograficha  Ceneri Vulcaniche






- Altitudine del aeroporto : 179 ft


LIPI - Rivolto AFB Udine

ULTIMO METAR :
  • 231455Z 16008KT 9999 FEW025 22/16 Q1014

METARs OBSOLETI :
  • 231411Z 14006KT 9999 FEW017 SCT035 21/18 Q1014 RETS RMK SCT VIS MIN 9999 WIND THR06 16005KT WIND THR24 17005KT BLU
  • 231355Z 13007KT 9999 -TSRA FEW023CB SCT035 20/18 Q1015
  • 231332Z 14009KT 9999 -SHRA FEW023TCU SCT035 20/17 Q1015 RMK BKN VIS MIN 9999 WIND THR06 16007KT WIND THR24 18009KT BLU
  • 231255Z 15007KT 9999 FEW025 SCT035 23/15 Q1015 RMK BKN VIS MIN 9999 WIND THR06 18006KT WIND THR24 20007KT BLU
  • 231155Z VRB05KT 9999 FEW025 SCT030 23/15 Q1015 RMK BKN VIS MIN 9999 WIND THR06 20004KT WIND THR24 15005KT BLU
  • 231055Z VRB02KT 9999 FEW027 SCT040 22/16 Q1015

TAF TAF LIPI
Valido dal 23 a 15 ore il 24 a 00 ore UTC


231400Z 2315/2324 VRB05KT 9999 FEW025 SCT035
TEMPO 2315/2324 VRB15KT 4000 TSRA FEW020CB BKN030



MetMap, La meteo Aeronautica in un colpo d'occhio ! - Copyright ORBIFLY Dicembre 2007 - Disclaimer

ORBIFLY MET'MAP TEAM :

Programmazione e sviluppo : Alexandra Zaïnal
Concezione : Baudouin d'Aumeries
Supporto tecnico e logistico : Manuel Goepfert
Aiuto : Marc-Olivier Méhu
Aiuto per la traduzione : Arnaldo La Scala




FONTI E CREDITI :

   NOAA